sensor_id;sensor_type;location;lat;lon;timestamp;P1;durP1;ratioP1;P2;durP2;ratioP2
5173;SDS011;2606;50.934;6.934;2022-12-24T00:01:09;12.17;;;3.30;;
5173;SDS011;2606;50.934;6.934;2022-12-24T00:03:35;14.27;;;3.27;;
5173;SDS011;2606;50.934;6.934;2022-12-24T00:06:09;12.80;;;2.37;;
5173;SDS011;2606;50.934;6.934;2022-12-24T00:08:40;12.23;;;2.70;;
5173;SDS011;2606;50.934;6.934;2022-12-24T00:11:05;17.00;;;2.83;;
5173;SDS011;2606;50.934;6.934;2022-12-24T00:13:31;7.17;;;2.13;;
5173;SDS011;2606;50.934;6.934;2022-12-24T00:15:57;18.83;;;2.63;;
5173;SDS011;2606;50.934;6.934;2022-12-24T00:18:23;14.10;;;2.47;;
5173;SDS011;2606;50.934;6.934;2022-12-24T00:20:49;17.40;;;2.80;;
5173;SDS011;2606;50.934;6.934;2022-12-24T00:23:15;17.27;;;2.73;;
5173;SDS011;2606;50.934;6.934;2022-12-24T00:25:41;25.30;;;2.87;;
5173;SDS011;2606;50.934;6.934;2022-12-24T00:28:06;17.97;;;3.13;;
5173;SDS011;2606;50.934;6.934;2022-12-24T00:30:32;10.63;;;2.40;;
5173;SDS011;2606;50.934;6.934;2022-12-24T00:32:58;12.80;;;2.47;;
5173;SDS011;2606;50.934;6.934;2022-12-24T00:35:23;17.90;;;2.90;;
5173;SDS011;2606;50.934;6.934;2022-12-24T00:37:50;17.87;;;3.30;;
5173;SDS011;2606;50.934;6.934;2022-12-24T00:40:16;13.17;;;2.13;;
5173;SDS011;2606;50.934;6.934;2022-12-24T00:42:42;14.50;;;2.60;;
5173;SDS011;2606;50.934;6.934;2022-12-24T00:45:08;9.20;;;2.20;;
5173;SDS011;2606;50.934;6.934;2022-12-24T00:47:35;9.53;;;2.53;;
5173;SDS011;2606;50.934;6.934;2022-12-24T00:50:01;10.80;;;2.73;;
5173;SDS011;2606;50.934;6.934;2022-12-24T00:52:26;14.10;;;2.23;;
5173;SDS011;2606;50.934;6.934;2022-12-24T00:54:52;18.00;;;3.47;;
5173;SDS011;2606;50.934;6.934;2022-12-24T00:57:17;16.90;;;2.63;;
5173;SDS011;2606;50.934;6.934;2022-12-24T00:59:43;12.93;;;2.73;;
5173;SDS011;2606;50.934;6.934;2022-12-24T01:02:09;8.13;;;2.57;;
5173;SDS011;2606;50.934;6.934;2022-12-24T01:04:34;16.27;;;2.83;;
5173;SDS011;2606;50.934;6.934;2022-12-24T01:07:18;22.30;;;2.67;;
5173;SDS011;2606;50.934;6.934;2022-12-24T01:09:44;16.07;;;2.20;;
5173;SDS011;2606;50.934;6.934;2022-12-24T01:12:10;15.00;;;2.73;;
5173;SDS011;2606;50.934;6.934;2022-12-24T01:14:36;16.07;;;2.30;;
5173;SDS011;2606;50.934;6.934;2022-12-24T01:17:01;19.80;;;2.20;;
5173;SDS011;2606;50.934;6.934;2022-12-24T01:19:27;10.90;;;2.30;;
5173;SDS011;2606;50.934;6.934;2022-12-24T01:21:53;11.83;;;2.40;;
5173;SDS011;2606;50.934;6.934;2022-12-24T01:24:19;13.53;;;2.20;;
5173;SDS011;2606;50.934;6.934;2022-12-24T01:26:44;9.13;;;2.43;;
5173;SDS011;2606;50.934;6.934;2022-12-24T01:29:10;13.70;;;2.20;;
5173;SDS011;2606;50.934;6.934;2022-12-24T01:31:35;9.50;;;2.03;;
5173;SDS011;2606;50.934;6.934;2022-12-24T01:34:01;13.47;;;2.07;;
5173;SDS011;2606;50.934;6.934;2022-12-24T01:36:27;11.73;;;2.40;;
5173;SDS011;2606;50.934;6.934;2022-12-24T01:38:52;13.07;;;2.27;;
5173;SDS011;2606;50.934;6.934;2022-12-24T01:41:19;19.10;;;2.73;;
5173;SDS011;2606;50.934;6.934;2022-12-24T01:44:19;14.70;;;2.80;;
5173;SDS011;2606;50.934;6.934;2022-12-24T01:46:45;12.60;;;2.00;;
5173;SDS011;2606;50.934;6.934;2022-12-24T01:49:12;16.00;;;2.67;;
5173;SDS011;2606;50.934;6.934;2022-12-24T01:51:48;12.40;;;2.50;;
5173;SDS011;2606;50.934;6.934;2022-12-24T01:54:20;13.77;;;2.10;;
5173;SDS011;2606;50.934;6.934;2022-12-24T01:56:51;14.27;;;2.27;;
5173;SDS011;2606;50.934;6.934;2022-12-24T01:59:25;8.90;;;1.77;;
5173;SDS011;2606;50.934;6.934;2022-12-24T02:01:50;10.77;;;2.20;;
5173;SDS011;2606;50.934;6.934;2022-12-24T02:04:26;14.00;;;2.53;;
5173;SDS011;2606;50.934;6.934;2022-12-24T02:07:01;12.80;;;2.37;;
5173;SDS011;2606;50.934;6.934;2022-12-24T02:09:27;18.13;;;2.73;;
5173;SDS011;2606;50.934;6.934;2022-12-24T02:11:53;9.70;;;2.33;;
5173;SDS011;2606;50.934;6.934;2022-12-24T02:14:20;14.37;;;2.60;;
5173;SDS011;2606;50.934;6.934;2022-12-24T02:19:29;11.43;;;2.27;;
5173;SDS011;2606;50.934;6.934;2022-12-24T02:30:42;13.80;;;2.37;;
5173;SDS011;2606;50.934;6.934;2022-12-24T02:36:10;17.93;;;1.87;;
5173;SDS011;2606;50.934;6.934;2022-12-24T02:38:50;22.20;;;3.00;;
5173;SDS011;2606;50.934;6.934;2022-12-24T02:41:26;23.03;;;2.43;;
5173;SDS011;2606;50.934;6.934;2022-12-24T02:44:15;15.60;;;2.37;;
5173;SDS011;2606;50.934;6.934;2022-12-24T02:46:44;16.20;;;2.73;;
5173;SDS011;2606;50.934;6.934;2022-12-24T02:49:11;18.73;;;2.60;;
5173;SDS011;2606;50.934;6.934;2022-12-24T02:51:37;18.43;;;3.80;;
5173;SDS011;2606;50.934;6.934;2022-12-24T02:54:03;20.87;;;3.73;;
5173;SDS011;2606;50.934;6.934;2022-12-24T03:02:08;5.40;;;1.67;;
5173;SDS011;2606;50.934;6.934;2022-12-24T03:04:44;10.53;;;2.23;;
5173;SDS011;2606;50.934;6.934;2022-12-24T03:07:33;9.00;;;2.73;;
5173;SDS011;2606;50.934;6.934;2022-12-24T03:12:51;16.40;;;1.93;;
5173;SDS011;2606;50.934;6.934;2022-12-24T03:15:22;13.43;;;2.03;;
5173;SDS011;2606;50.934;6.934;2022-12-24T03:17:51;7.40;;;2.23;;
5173;SDS011;2606;50.934;6.934;2022-12-24T03:20:21;17.90;;;2.30;;
5173;SDS011;2606;50.934;6.934;2022-12-24T03:23:02;12.30;;;2.40;;
5173;SDS011;2606;50.934;6.934;2022-12-24T03:25:28;12.60;;;2.30;;
5173;SDS011;2606;50.934;6.934;2022-12-24T03:27:56;12.13;;;2.63;;
5173;SDS011;2606;50.934;6.934;2022-12-24T03:30:23;7.77;;;1.83;;
5173;SDS011;2606;50.934;6.934;2022-12-24T03:32:50;9.30;;;2.30;;
5173;SDS011;2606;50.934;6.934;2022-12-24T03:35:15;7.63;;;1.60;;
5173;SDS011;2606;50.934;6.934;2022-12-24T03:37:41;6.77;;;1.70;;
5173;SDS011;2606;50.934;6.934;2022-12-24T03:40:07;10.07;;;1.90;;
5173;SDS011;2606;50.934;6.934;2022-12-24T03:42:33;6.93;;;1.30;;
5173;SDS011;2606;50.934;6.934;2022-12-24T03:44:58;8.83;;;1.77;;
5173;SDS011;2606;50.934;6.934;2022-12-24T03:47:24;5.77;;;1.50;;
5173;SDS011;2606;50.934;6.934;2022-12-24T03:49:49;5.93;;;1.73;;
5173;SDS011;2606;50.934;6.934;2022-12-24T03:52:15;7.33;;;1.70;;
5173;SDS011;2606;50.934;6.934;2022-12-24T03:54:43;5.67;;;1.57;;
5173;SDS011;2606;50.934;6.934;2022-12-24T03:57:09;7.23;;;1.43;;
5173;SDS011;2606;50.934;6.934;2022-12-24T03:59:35;4.03;;;1.77;;
5173;SDS011;2606;50.934;6.934;2022-12-24T04:02:01;8.17;;;1.77;;
5173;SDS011;2606;50.934;6.934;2022-12-24T04:04:26;6.07;;;1.97;;
5173;SDS011;2606;50.934;6.934;2022-12-24T04:06:52;4.07;;;1.60;;
5173;SDS011;2606;50.934;6.934;2022-12-24T04:09:18;6.17;;;1.70;;
5173;SDS011;2606;50.934;6.934;2022-12-24T04:11:44;6.70;;;1.27;;
5173;SDS011;2606;50.934;6.934;2022-12-24T04:14:09;2.93;;;1.00;;
5173;SDS011;2606;50.934;6.934;2022-12-24T04:16:35;4.93;;;1.30;;
5173;SDS011;2606;50.934;6.934;2022-12-24T04:19:01;4.53;;;1.20;;
5173;SDS011;2606;50.934;6.934;2022-12-24T04:21:27;11.67;;;2.13;;
5173;SDS011;2606;50.934;6.934;2022-12-24T04:23:52;7.43;;;1.37;;
5173;SDS011;2606;50.934;6.934;2022-12-24T04:26:18;5.33;;;1.10;;
5173;SDS011;2606;50.934;6.934;2022-12-24T04:28:43;4.73;;;1.60;;
5173;SDS011;2606;50.934;6.934;2022-12-24T04:31:10;5.40;;;1.17;;
5173;SDS011;2606;50.934;6.934;2022-12-24T04:33:38;2.10;;;0.87;;
5173;SDS011;2606;50.934;6.934;2022-12-24T04:36:04;2.87;;;1.27;;
5173;SDS011;2606;50.934;6.934;2022-12-24T04:38:31;1.77;;;0.90;;
5173;SDS011;2606;50.934;6.934;2022-12-24T04:41:01;3.60;;;1.10;;
5173;SDS011;2606;50.934;6.934;2022-12-24T04:43:27;3.83;;;1.10;;
5173;SDS011;2606;50.934;6.934;2022-12-24T04:45:54;6.20;;;1.70;;
5173;SDS011;2606;50.934;6.934;2022-12-24T04:48:19;4.27;;;1.10;;
5173;SDS011;2606;50.934;6.934;2022-12-24T04:50:45;7.13;;;1.00;;
5173;SDS011;2606;50.934;6.934;2022-12-24T04:53:11;9.60;;;1.50;;
5173;SDS011;2606;50.934;6.934;2022-12-24T04:55:42;5.53;;;1.43;;
5173;SDS011;2606;50.934;6.934;2022-12-24T04:58:11;3.40;;;1.60;;
5173;SDS011;2606;50.934;6.934;2022-12-24T05:00:38;1.90;;;1.33;;
5173;SDS011;2606;50.934;6.934;2022-12-24T05:03:04;1.63;;;1.23;;
5173;SDS011;2606;50.934;6.934;2022-12-24T05:05:30;4.53;;;1.00;;
5173;SDS011;2606;50.934;6.934;2022-12-24T05:07:55;5.03;;;1.20;;
5173;SDS011;2606;50.934;6.934;2022-12-24T05:10:21;3.93;;;1.13;;
5173;SDS011;2606;50.934;6.934;2022-12-24T05:12:46;6.70;;;1.20;;
5173;SDS011;2606;50.934;6.934;2022-12-24T05:15:12;5.50;;;1.33;;
5173;SDS011;2606;50.934;6.934;2022-12-24T05:17:38;6.73;;;1.63;;
5173;SDS011;2606;50.934;6.934;2022-12-24T05:20:04;5.70;;;1.13;;
5173;SDS011;2606;50.934;6.934;2022-12-24T05:22:30;7.60;;;1.30;;
5173;SDS011;2606;50.934;6.934;2022-12-24T05:25:14;3.60;;;1.20;;
5173;SDS011;2606;50.934;6.934;2022-12-24T05:27:59;4.07;;;1.53;;
5173;SDS011;2606;50.934;6.934;2022-12-24T05:30:24;10.50;;;1.40;;
5173;SDS011;2606;50.934;6.934;2022-12-24T05:32:50;1.97;;;1.10;;
5173;SDS011;2606;50.934;6.934;2022-12-24T05:35:16;2.77;;;1.20;;
5173;SDS011;2606;50.934;6.934;2022-12-24T05:37:41;5.20;;;1.53;;
5173;SDS011;2606;50.934;6.934;2022-12-24T05:40:07;6.60;;;2.07;;
5173;SDS011;2606;50.934;6.934;2022-12-24T05:42:33;5.10;;;1.70;;
5173;SDS011;2606;50.934;6.934;2022-12-24T05:44:58;8.63;;;2.13;;
5173;SDS011;2606;50.934;6.934;2022-12-24T05:47:24;3.80;;;1.60;;
5173;SDS011;2606;50.934;6.934;2022-12-24T05:49:50;7.73;;;2.00;;
5173;SDS011;2606;50.934;6.934;2022-12-24T05:52:15;6.20;;;1.57;;
5173;SDS011;2606;50.934;6.934;2022-12-24T05:54:41;10.70;;;1.70;;
5173;SDS011;2606;50.934;6.934;2022-12-24T05:57:07;5.57;;;1.90;;
5173;SDS011;2606;50.934;6.934;2022-12-24T05:59:32;18.97;;;2.67;;
5173;SDS011;2606;50.934;6.934;2022-12-24T06:01:58;8.70;;;2.40;;
5173;SDS011;2606;50.934;6.934;2022-12-24T06:04:23;7.70;;;2.27;;
5173;SDS011;2606;50.934;6.934;2022-12-24T06:06:49;13.53;;;2.10;;
5173;SDS011;2606;50.934;6.934;2022-12-24T06:09:15;11.50;;;1.93;;
5173;SDS011;2606;50.934;6.934;2022-12-24T06:11:41;8.90;;;2.50;;
5173;SDS011;2606;50.934;6.934;2022-12-24T06:14:06;9.37;;;1.87;;
5173;SDS011;2606;50.934;6.934;2022-12-24T06:16:32;6.40;;;1.97;;
5173;SDS011;2606;50.934;6.934;2022-12-24T06:18:57;14.13;;;2.40;;
5173;SDS011;2606;50.934;6.934;2022-12-24T06:21:23;17.03;;;2.57;;
5173;SDS011;2606;50.934;6.934;2022-12-24T06:23:49;12.03;;;2.80;;
5173;SDS011;2606;50.934;6.934;2022-12-24T06:26:16;7.37;;;2.10;;
5173;SDS011;2606;50.934;6.934;2022-12-24T06:28:46;10.63;;;2.40;;
5173;SDS011;2606;50.934;6.934;2022-12-24T06:31:14;23.53;;;2.97;;
5173;SDS011;2606;50.934;6.934;2022-12-24T06:33:42;11.30;;;1.93;;
5173;SDS011;2606;50.934;6.934;2022-12-24T06:36:08;8.47;;;2.10;;
5173;SDS011;2606;50.934;6.934;2022-12-24T06:38:41;10.80;;;2.33;;
5173;SDS011;2606;50.934;6.934;2022-12-24T06:41:07;7.67;;;1.90;;
5173;SDS011;2606;50.934;6.934;2022-12-24T06:43:33;15.17;;;3.13;;
5173;SDS011;2606;50.934;6.934;2022-12-24T06:45:59;18.67;;;3.10;;
5173;SDS011;2606;50.934;6.934;2022-12-24T06:48:26;8.77;;;2.40;;
5173;SDS011;2606;50.934;6.934;2022-12-24T06:50:51;9.27;;;2.87;;
5173;SDS011;2606;50.934;6.934;2022-12-24T06:53:17;18.77;;;2.33;;
5173;SDS011;2606;50.934;6.934;2022-12-24T06:55:43;15.37;;;2.50;;
5173;SDS011;2606;50.934;6.934;2022-12-24T06:58:09;7.03;;;2.50;;
5173;SDS011;2606;50.934;6.934;2022-12-24T07:00:34;14.03;;;2.60;;
5173;SDS011;2606;50.934;6.934;2022-12-24T07:03:00;19.63;;;3.40;;
5173;SDS011;2606;50.934;6.934;2022-12-24T07:05:27;19.60;;;3.20;;
5173;SDS011;2606;50.934;6.934;2022-12-24T07:07:53;9.93;;;2.20;;
5173;SDS011;2606;50.934;6.934;2022-12-24T07:10:19;13.40;;;2.40;;
5173;SDS011;2606;50.934;6.934;2022-12-24T07:12:45;15.60;;;3.23;;
5173;SDS011;2606;50.934;6.934;2022-12-24T07:15:11;17.03;;;3.27;;
5173;SDS011;2606;50.934;6.934;2022-12-24T07:17:38;12.60;;;3.07;;
5173;SDS011;2606;50.934;6.934;2022-12-24T07:20:04;17.80;;;2.90;;
5173;SDS011;2606;50.934;6.934;2022-12-24T07:22:31;13.90;;;2.90;;
5173;SDS011;2606;50.934;6.934;2022-12-24T07:24:57;13.50;;;2.87;;
5173;SDS011;2606;50.934;6.934;2022-12-24T07:27:22;9.00;;;2.30;;
5173;SDS011;2606;50.934;6.934;2022-12-24T07:29:48;19.33;;;3.30;;
5173;SDS011;2606;50.934;6.934;2022-12-24T07:32:13;22.60;;;3.93;;
5173;SDS011;2606;50.934;6.934;2022-12-24T07:34:39;9.73;;;2.30;;
5173;SDS011;2606;50.934;6.934;2022-12-24T07:37:06;26.20;;;3.03;;
5173;SDS011;2606;50.934;6.934;2022-12-24T07:39:31;15.10;;;3.10;;
5173;SDS011;2606;50.934;6.934;2022-12-24T07:41:57;11.80;;;2.77;;
5173;SDS011;2606;50.934;6.934;2022-12-24T07:44:22;12.47;;;2.80;;
5173;SDS011;2606;50.934;6.934;2022-12-24T07:46:49;7.50;;;2.03;;
5173;SDS011;2606;50.934;6.934;2022-12-24T07:49:14;12.37;;;2.63;;
5173;SDS011;2606;50.934;6.934;2022-12-24T07:51:40;8.10;;;2.30;;
5173;SDS011;2606;50.934;6.934;2022-12-24T07:54:05;14.60;;;2.70;;
5173;SDS011;2606;50.934;6.934;2022-12-24T07:56:31;10.43;;;3.10;;
5173;SDS011;2606;50.934;6.934;2022-12-24T07:58:57;12.23;;;3.10;;
5173;SDS011;2606;50.934;6.934;2022-12-24T08:01:23;12.73;;;3.63;;
5173;SDS011;2606;50.934;6.934;2022-12-24T08:03:49;19.67;;;2.83;;
5173;SDS011;2606;50.934;6.934;2022-12-24T08:06:18;11.83;;;2.73;;
5173;SDS011;2606;50.934;6.934;2022-12-24T08:08:44;16.73;;;3.10;;
5173;SDS011;2606;50.934;6.934;2022-12-24T08:11:10;15.43;;;2.83;;
5173;SDS011;2606;50.934;6.934;2022-12-24T08:13:36;27.07;;;2.73;;
5173;SDS011;2606;50.934;6.934;2022-12-24T08:16:02;11.50;;;2.93;;
5173;SDS011;2606;50.934;6.934;2022-12-24T08:18:28;20.93;;;3.43;;
5173;SDS011;2606;50.934;6.934;2022-12-24T08:20:53;19.43;;;3.20;;
5173;SDS011;2606;50.934;6.934;2022-12-24T08:23:19;8.90;;;3.13;;
5173;SDS011;2606;50.934;6.934;2022-12-24T08:25:45;13.13;;;2.73;;
5173;SDS011;2606;50.934;6.934;2022-12-24T08:28:12;18.30;;;3.27;;
5173;SDS011;2606;50.934;6.934;2022-12-24T08:30:40;17.03;;;2.77;;
5173;SDS011;2606;50.934;6.934;2022-12-24T08:33:06;13.50;;;2.43;;
5173;SDS011;2606;50.934;6.934;2022-12-24T08:35:32;14.37;;;2.50;;
5173;SDS011;2606;50.934;6.934;2022-12-24T08:37:58;12.97;;;2.57;;
5173;SDS011;2606;50.934;6.934;2022-12-24T08:40:23;17.30;;;2.57;;
5173;SDS011;2606;50.934;6.934;2022-12-24T08:42:49;11.40;;;2.60;;
5173;SDS011;2606;50.934;6.934;2022-12-24T08:45:15;12.23;;;2.43;;
5173;SDS011;2606;50.934;6.934;2022-12-24T08:47:41;18.70;;;3.50;;
5173;SDS011;2606;50.934;6.934;2022-12-24T08:50:07;12.97;;;2.60;;
5173;SDS011;2606;50.934;6.934;2022-12-24T08:52:33;18.27;;;3.33;;
5173;SDS011;2606;50.934;6.934;2022-12-24T08:54:59;20.10;;;3.27;;
5173;SDS011;2606;50.934;6.934;2022-12-24T08:57:24;16.00;;;3.70;;
5173;SDS011;2606;50.934;6.934;2022-12-24T08:59:50;24.90;;;3.80;;
5173;SDS011;2606;50.934;6.934;2022-12-24T09:02:16;17.07;;;3.57;;
5173;SDS011;2606;50.934;6.934;2022-12-24T09:04:41;20.13;;;3.50;;
5173;SDS011;2606;50.934;6.934;2022-12-24T09:07:07;21.10;;;2.80;;
5173;SDS011;2606;50.934;6.934;2022-12-24T09:09:33;28.40;;;3.00;;
5173;SDS011;2606;50.934;6.934;2022-12-24T09:11:59;15.63;;;2.80;;
5173;SDS011;2606;50.934;6.934;2022-12-24T09:14:26;15.23;;;2.53;;
5173;SDS011;2606;50.934;6.934;2022-12-24T09:16:52;17.87;;;3.40;;
5173;SDS011;2606;50.934;6.934;2022-12-24T09:19:17;9.00;;;2.43;;
5173;SDS011;2606;50.934;6.934;2022-12-24T09:21:43;19.63;;;2.90;;
5173;SDS011;2606;50.934;6.934;2022-12-24T09:24:09;13.67;;;2.93;;
5173;SDS011;2606;50.934;6.934;2022-12-24T09:26:34;20.97;;;3.00;;
5173;SDS011;2606;50.934;6.934;2022-12-24T09:29:00;14.73;;;3.83;;
5173;SDS011;2606;50.934;6.934;2022-12-24T09:31:26;17.30;;;3.70;;
5173;SDS011;2606;50.934;6.934;2022-12-24T09:33:52;16.03;;;2.60;;
5173;SDS011;2606;50.934;6.934;2022-12-24T09:36:19;15.27;;;3.27;;
5173;SDS011;2606;50.934;6.934;2022-12-24T09:38:45;25.97;;;2.90;;
5173;SDS011;2606;50.934;6.934;2022-12-24T09:41:32;11.43;;;2.33;;
5173;SDS011;2606;50.934;6.934;2022-12-24T09:49:51;17.83;;;3.23;;
5173;SDS011;2606;50.934;6.934;2022-12-24T09:52:28;14.37;;;2.90;;
5173;SDS011;2606;50.934;6.934;2022-12-24T09:55:05;23.27;;;3.23;;
5173;SDS011;2606;50.934;6.934;2022-12-24T09:57:41;27.50;;;3.70;;
5173;SDS011;2606;50.934;6.934;2022-12-24T10:00:15;21.03;;;3.40;;
5173;SDS011;2606;50.934;6.934;2022-12-24T10:02:45;21.90;;;4.20;;
5173;SDS011;2606;50.934;6.934;2022-12-24T10:05:13;21.87;;;4.17;;
5173;SDS011;2606;50.934;6.934;2022-12-24T10:07:45;21.67;;;3.57;;
5173;SDS011;2606;50.934;6.934;2022-12-24T10:10:25;24.07;;;5.40;;
5173;SDS011;2606;50.934;6.934;2022-12-24T10:15:59;14.67;;;3.30;;
5173;SDS011;2606;50.934;6.934;2022-12-24T10:18:32;27.47;;;4.07;;
5173;SDS011;2606;50.934;6.934;2022-12-24T10:23:36;32.00;;;4.60;;
5173;SDS011;2606;50.934;6.934;2022-12-24T10:31:47;14.23;;;4.10;;
5173;SDS011;2606;50.934;6.934;2022-12-24T10:34:29;21.20;;;3.53;;
5173;SDS011;2606;50.934;6.934;2022-12-24T10:36:59;20.30;;;3.20;;
5173;SDS011;2606;50.934;6.934;2022-12-24T10:39:28;29.67;;;4.07;;
5173;SDS011;2606;50.934;6.934;2022-12-24T10:41:55;22.10;;;3.50;;
5173;SDS011;2606;50.934;6.934;2022-12-24T10:44:23;14.40;;;2.33;;
5173;SDS011;2606;50.934;6.934;2022-12-24T10:46:51;15.63;;;3.23;;
5173;SDS011;2606;50.934;6.934;2022-12-24T10:50:00;30.87;;;3.13;;
5173;SDS011;2606;50.934;6.934;2022-12-24T10:52:10;14.77;;;2.50;;
5173;SDS011;2606;50.934;6.934;2022-12-24T10:54:39;18.20;;;3.47;;
5173;SDS011;2606;50.934;6.934;2022-12-24T10:57:32;15.17;;;3.27;;
5173;SDS011;2606;50.934;6.934;2022-12-24T10:59:58;12.90;;;2.97;;
5173;SDS011;2606;50.934;6.934;2022-12-24T11:02:31;23.33;;;3.20;;
5173;SDS011;2606;50.934;6.934;2022-12-24T11:04:59;12.40;;;3.27;;
5173;SDS011;2606;50.934;6.934;2022-12-24T11:07:26;12.83;;;3.43;;
5173;SDS011;2606;50.934;6.934;2022-12-24T11:09:57;14.63;;;3.10;;
5173;SDS011;2606;50.934;6.934;2022-12-24T11:12:29;33.83;;;3.93;;
5173;SDS011;2606;50.934;6.934;2022-12-24T11:17:31;22.53;;;3.87;;
5173;SDS011;2606;50.934;6.934;2022-12-24T11:19:58;24.33;;;3.93;;
5173;SDS011;2606;50.934;6.934;2022-12-24T11:22:28;26.07;;;3.53;;
5173;SDS011;2606;50.934;6.934;2022-12-24T11:25:05;21.17;;;2.70;;
5173;SDS011;2606;50.934;6.934;2022-12-24T11:27:43;12.83;;;2.80;;
5173;SDS011;2606;50.934;6.934;2022-12-24T11:32:39;17.90;;;3.57;;
5173;SDS011;2606;50.934;6.934;2022-12-24T11:35:23;19.43;;;3.20;;
5173;SDS011;2606;50.934;6.934;2022-12-24T11:40:28;20.17;;;3.77;;
5173;SDS011;2606;50.934;6.934;2022-12-24T11:43:00;15.23;;;3.40;;
5173;SDS011;2606;50.934;6.934;2022-12-24T11:45:28;19.33;;;3.00;;
5173;SDS011;2606;50.934;6.934;2022-12-24T11:47:55;18.73;;;3.60;;
5173;SDS011;2606;50.934;6.934;2022-12-24T11:50:23;8.80;;;2.77;;
5173;SDS011;2606;50.934;6.934;2022-12-24T11:58:11;14.60;;;3.20;;
5173;SDS011;2606;50.934;6.934;2022-12-24T12:03:39;20.13;;;2.83;;
5173;SDS011;2606;50.934;6.934;2022-12-24T12:06:19;13.60;;;3.13;;
5173;SDS011;2606;50.934;6.934;2022-12-24T12:09:04;11.63;;;2.50;;
5173;SDS011;2606;50.934;6.934;2022-12-24T12:11:35;18.10;;;3.10;;
5173;SDS011;2606;50.934;6.934;2022-12-24T12:14:03;18.93;;;3.33;;
5173;SDS011;2606;50.934;6.934;2022-12-24T12:16:50;15.00;;;3.07;;
5173;SDS011;2606;50.934;6.934;2022-12-24T12:19:34;13.70;;;2.97;;
5173;SDS011;2606;50.934;6.934;2022-12-24T12:22:20;17.70;;;3.50;;
5173;SDS011;2606;50.934;6.934;2022-12-24T12:24:58;11.60;;;2.43;;
5173;SDS011;2606;50.934;6.934;2022-12-24T12:27:35;16.47;;;3.40;;
5173;SDS011;2606;50.934;6.934;2022-12-24T12:30:24;24.90;;;4.60;;
5173;SDS011;2606;50.934;6.934;2022-12-24T12:33:02;11.20;;;3.20;;
5173;SDS011;2606;50.934;6.934;2022-12-24T12:35:49;20.17;;;3.30;;
5173;SDS011;2606;50.934;6.934;2022-12-24T12:38:26;17.50;;;3.37;;
5173;SDS011;2606;50.934;6.934;2022-12-24T12:41:11;22.90;;;3.60;;
5173;SDS011;2606;50.934;6.934;2022-12-24T12:46:48;23.37;;;4.23;;
5173;SDS011;2606;50.934;6.934;2022-12-24T12:49:35;17.13;;;3.30;;
5173;SDS011;2606;50.934;6.934;2022-12-24T12:58:16;16.40;;;3.20;;
5173;SDS011;2606;50.934;6.934;2022-12-24T13:00:46;13.47;;;2.90;;
5173;SDS011;2606;50.934;6.934;2022-12-24T13:22:56;19.60;;;3.27;;
5173;SDS011;2606;50.934;6.934;2022-12-24T13:25:43;15.43;;;3.23;;
5173;SDS011;2606;50.934;6.934;2022-12-24T13:30:50;22.07;;;2.90;;
5173;SDS011;2606;50.934;6.934;2022-12-24T13:38:28;16.73;;;2.67;;
5173;SDS011;2606;50.934;6.934;2022-12-24T13:40:54;9.97;;;2.10;;
5173;SDS011;2606;50.934;6.934;2022-12-24T13:49:40;17.30;;;2.40;;
5173;SDS011;2606;50.934;6.934;2022-12-24T13:54:40;13.83;;;2.60;;
5173;SDS011;2606;50.934;6.934;2022-12-24T14:02:56;18.60;;;3.67;;
5173;SDS011;2606;50.934;6.934;2022-12-24T14:05:35;18.83;;;3.60;;
5173;SDS011;2606;50.934;6.934;2022-12-24T14:08:11;16.77;;;2.43;;
5173;SDS011;2606;50.934;6.934;2022-12-24T14:11:02;13.10;;;3.40;;
5173;SDS011;2606;50.934;6.934;2022-12-24T14:18:37;19.40;;;3.23;;
5173;SDS011;2606;50.934;6.934;2022-12-24T14:21:07;20.70;;;3.63;;
5173;SDS011;2606;50.934;6.934;2022-12-24T14:26:19;13.10;;;2.83;;
5173;SDS011;2606;50.934;6.934;2022-12-24T14:28:57;10.13;;;3.30;;
5173;SDS011;2606;50.934;6.934;2022-12-24T14:31:31;10.70;;;2.20;;
5173;SDS011;2606;50.934;6.934;2022-12-24T14:34:07;11.83;;;2.40;;
5173;SDS011;2606;50.934;6.934;2022-12-24T14:36:40;18.33;;;2.40;;
5173;SDS011;2606;50.934;6.934;2022-12-24T14:39:08;17.73;;;3.33;;
5173;SDS011;2606;50.934;6.934;2022-12-24T14:41:48;15.07;;;3.07;;
5173;SDS011;2606;50.934;6.934;2022-12-24T14:47:25;8.03;;;1.90;;
5173;SDS011;2606;50.934;6.934;2022-12-24T14:50:28;12.03;;;2.30;;
5173;SDS011;2606;50.934;6.934;2022-12-24T14:53:32;9.57;;;2.43;;
5173;SDS011;2606;50.934;6.934;2022-12-24T14:56:16;11.30;;;2.27;;
5173;SDS011;2606;50.934;6.934;2022-12-24T14:58:43;18.20;;;2.80;;
5173;SDS011;2606;50.934;6.934;2022-12-24T15:01:23;24.43;;;3.17;;
5173;SDS011;2606;50.934;6.934;2022-12-24T15:06:34;12.60;;;3.03;;
5173;SDS011;2606;50.934;6.934;2022-12-24T15:09:04;28.33;;;3.47;;
5173;SDS011;2606;50.934;6.934;2022-12-24T15:11:37;10.47;;;2.43;;
5173;SDS011;2606;50.934;6.934;2022-12-24T15:14:03;13.87;;;3.10;;
5173;SDS011;2606;50.934;6.934;2022-12-24T15:16:31;12.17;;;2.30;;
5173;SDS011;2606;50.934;6.934;2022-12-24T15:19:03;9.00;;;2.90;;
5173;SDS011;2606;50.934;6.934;2022-12-24T15:21:32;18.70;;;2.93;;
5173;SDS011;2606;50.934;6.934;2022-12-24T15:24:01;13.97;;;2.83;;
5173;SDS011;2606;50.934;6.934;2022-12-24T15:28:58;15.37;;;2.40;;
5173;SDS011;2606;50.934;6.934;2022-12-24T15:31:25;12.90;;;2.90;;
5173;SDS011;2606;50.934;6.934;2022-12-24T15:33:53;16.57;;;3.57;;
5173;SDS011;2606;50.934;6.934;2022-12-24T15:36:28;20.50;;;3.70;;
5173;SDS011;2606;50.934;6.934;2022-12-24T15:39:05;23.33;;;4.50;;
5173;SDS011;2606;50.934;6.934;2022-12-24T15:41:38;22.50;;;4.23;;
5173;SDS011;2606;50.934;6.934;2022-12-24T15:44:26;17.83;;;7.70;;
5173;SDS011;2606;50.934;6.934;2022-12-24T15:46:57;14.90;;;4.70;;
5173;SDS011;2606;50.934;6.934;2022-12-24T15:49:24;15.97;;;6.30;;
5173;SDS011;2606;50.934;6.934;2022-12-24T15:51:52;17.33;;;4.60;;
5173;SDS011;2606;50.934;6.934;2022-12-24T15:54:25;16.63;;;4.10;;
5173;SDS011;2606;50.934;6.934;2022-12-24T15:56:51;12.33;;;4.00;;
5173;SDS011;2606;50.934;6.934;2022-12-24T15:59:22;15.17;;;3.93;;
5173;SDS011;2606;50.934;6.934;2022-12-24T16:01:49;12.90;;;4.00;;
5173;SDS011;2606;50.934;6.934;2022-12-24T16:04:19;11.13;;;4.00;;
5173;SDS011;2606;50.934;6.934;2022-12-24T16:06:51;13.80;;;4.63;;
5173;SDS011;2606;50.934;6.934;2022-12-24T16:09:38;13.73;;;5.13;;
5173;SDS011;2606;50.934;6.934;2022-12-24T16:12:10;21.43;;;5.37;;
5173;SDS011;2606;50.934;6.934;2022-12-24T16:14:39;20.60;;;4.60;;
5173;SDS011;2606;50.934;6.934;2022-12-24T16:17:18;15.63;;;5.60;;
5173;SDS011;2606;50.934;6.934;2022-12-24T16:19:46;19.57;;;4.37;;
5173;SDS011;2606;50.934;6.934;2022-12-24T16:22:16;15.33;;;4.50;;
5173;SDS011;2606;50.934;6.934;2022-12-24T16:24:59;23.77;;;5.30;;
5173;SDS011;2606;50.934;6.934;2022-12-24T16:27:26;26.37;;;4.63;;
5173;SDS011;2606;50.934;6.934;2022-12-24T16:29:52;14.00;;;4.63;;
5173;SDS011;2606;50.934;6.934;2022-12-24T16:32:27;12.13;;;3.20;;
5173;SDS011;2606;50.934;6.934;2022-12-24T16:34:58;16.23;;;4.63;;
5173;SDS011;2606;50.934;6.934;2022-12-24T16:37:29;17.17;;;4.40;;
5173;SDS011;2606;50.934;6.934;2022-12-24T16:39:55;10.27;;;4.20;;
5173;SDS011;2606;50.934;6.934;2022-12-24T16:42:21;21.07;;;3.97;;
5173;SDS011;2606;50.934;6.934;2022-12-24T16:45:05;17.17;;;4.37;;
5173;SDS011;2606;50.934;6.934;2022-12-24T16:47:32;14.40;;;4.90;;
5173;SDS011;2606;50.934;6.934;2022-12-24T16:49:59;11.30;;;4.30;;
5173;SDS011;2606;50.934;6.934;2022-12-24T16:52:26;22.13;;;4.13;;
5173;SDS011;2606;50.934;6.934;2022-12-24T16:54:54;12.07;;;3.60;;
5173;SDS011;2606;50.934;6.934;2022-12-24T16:57:20;19.93;;;5.00;;
5173;SDS011;2606;50.934;6.934;2022-12-24T16:59:46;22.27;;;7.03;;
5173;SDS011;2606;50.934;6.934;2022-12-24T17:02:13;22.70;;;5.73;;
5173;SDS011;2606;50.934;6.934;2022-12-24T17:04:40;18.90;;;5.07;;
5173;SDS011;2606;50.934;6.934;2022-12-24T17:07:08;17.30;;;5.40;;
5173;SDS011;2606;50.934;6.934;2022-12-24T17:09:38;17.63;;;4.53;;
5173;SDS011;2606;50.934;6.934;2022-12-24T17:12:03;19.60;;;4.20;;
5173;SDS011;2606;50.934;6.934;2022-12-24T17:14:29;13.20;;;3.70;;
5173;SDS011;2606;50.934;6.934;2022-12-24T17:16:55;22.37;;;4.80;;
5173;SDS011;2606;50.934;6.934;2022-12-24T17:19:20;12.43;;;4.57;;
5173;SDS011;2606;50.934;6.934;2022-12-24T17:21:46;14.57;;;4.78;;